createdAt,value
2022-08-10T00:00:23.560Z,95781.66
2022-08-10T00:03:10.172Z,95790.72
2022-08-10T00:05:56.716Z,95785.16
2022-08-10T00:08:42.992Z,95779.63
2022-08-10T00:11:29.139Z,95786.72
2022-08-10T00:14:14.917Z,95779.59
2022-08-10T00:17:00.695Z,95776.41
2022-08-10T00:20:03.455Z,95776.84
2022-08-10T00:22:57.593Z,95778.00
2022-08-10T00:25:44.185Z,95773.25
2022-08-10T00:28:30.626Z,95769.69
2022-08-10T00:31:16.759Z,95775.59
2022-08-10T00:34:02.869Z,95766.13
2022-08-10T00:36:49.024Z,95775.22
2022-08-10T00:39:36.337Z,95765.34
2022-08-10T00:42:25.187Z,95766.94
2022-08-10T00:45:11.835Z,95769.31
2022-08-10T00:47:57.632Z,95766.94
2022-08-10T00:50:43.334Z,95773.25
2022-08-10T00:53:29.434Z,95777.97
2022-08-10T00:56:34.963Z,95773.25
2022-08-10T00:59:23.873Z,95775.59
2022-08-10T01:02:11.835Z,95779.53
2022-08-10T01:05:10.845Z,95770.06
2022-08-10T01:08:07.757Z,95767.66
2022-08-10T01:11:06.729Z,95766.09
2022-08-10T01:14:50.300Z,95756.63
2022-08-10T01:17:51.658Z,95769.19
2022-08-10T01:20:45.512Z,95763.69
2022-08-10T01:23:55.646Z,95764.47
2022-08-10T01:27:16.406Z,95766.81
2022-08-10T01:30:05.985Z,95758.19
2022-08-10T01:33:10.248Z,95758.19
2022-08-10T01:35:59.994Z,95760.56
2022-08-10T01:38:50.436Z,95765.28
2022-08-10T01:41:45.754Z,95769.25
2022-08-10T01:44:39.865Z,95769.63
2022-08-10T01:47:49.221Z,95765.28
2022-08-10T01:50:59.470Z,95771.59
2022-08-10T01:53:54.802Z,95766.06
2022-08-10T01:56:43.412Z,95767.66
2022-08-10T01:59:37.210Z,95770.41
2022-08-10T02:02:23.891Z,95774.72
2022-08-10T02:05:10.244Z,95761.31
2022-08-10T02:07:57.089Z,95760.91
2022-08-10T02:10:44.330Z,95763.66
2022-08-10T02:13:31.335Z,95774.28
2022-08-10T02:16:17.899Z,95769.94
2022-08-10T02:19:05.053Z,95775.06
2022-08-10T02:22:35.062Z,95774.25
2022-08-10T03:56:44.071Z,95803.50
2022-08-10T03:59:37.240Z,95809.38
2022-08-10T04:02:43.206Z,95804.28
2022-08-10T04:05:38.714Z,95809.81
2022-08-10T04:08:25.176Z,95812.16
2022-08-10T04:11:12.142Z,95823.22
2022-08-10T04:13:57.918Z,95810.59
2022-08-10T04:16:43.721Z,95815.00
2022-08-10T04:19:30.377Z,95821.31
2022-08-10T04:22:22.224Z,95816.97
2022-08-10T04:25:08.740Z,95821.38
2022-08-10T04:27:55.314Z,95822.22
2022-08-10T04:30:45.268Z,95815.53
2022-08-10T04:33:42.564Z,95807.66
2022-08-10T04:36:28.836Z,95817.19
2022-08-10T04:39:16.242Z,95824.28
2022-08-10T04:42:05.796Z,95826.66
2022-08-10T04:44:53.030Z,95829.44
2022-08-10T04:47:57.272Z,95831.44
2022-08-10T04:50:44.988Z,95829.06
2022-08-10T04:54:04.411Z,95828.28
2022-08-10T04:56:41.965Z,95833.03
2022-08-10T04:59:27.763Z,95844.88
2022-08-10T05:02:30.531Z,95834.59
2022-08-10T05:05:20.422Z,95840.94
2022-08-10T05:08:06.563Z,95843.69
2022-08-10T05:10:53.101Z,95835.34
2022-08-10T05:13:38.818Z,95846.44
2022-08-10T05:16:31.868Z,95842.13
2022-08-10T05:20:04.853Z,95826.66
2022-08-10T05:22:28.318Z,95835.34
2022-08-10T05:25:16.515Z,95841.63
2022-08-10T05:28:06.300Z,95851.06
2022-08-10T05:30:52.565Z,95849.88
2022-08-10T05:33:38.285Z,95857.78
2022-08-10T05:36:24.616Z,95855.38
2022-08-10T05:39:10.867Z,95855.00
2022-08-10T05:41:57.910Z,95851.84
2022-08-10T05:44:47.413Z,95855.78
2022-08-10T05:48:41.956Z,95859.75
2022-08-10T05:50:39.617Z,95857.38
2022-08-10T05:54:00.910Z,95863.31
2022-08-10T05:56:56.807Z,95862.94
2022-08-10T06:00:34.658Z,95860.19
2022-08-10T06:03:02.526Z,95860.94
2022-08-10T06:05:48.519Z,95860.59
2022-08-10T06:08:35.865Z,95866.53
2022-08-10T06:12:28.064Z,95858.25
2022-08-10T06:14:57.989Z,95863.81
2022-08-10T06:17:46.318Z,95866.25
2022-08-10T06:20:49.711Z,95855.59
2022-08-10T06:23:37.894Z,95852.91
2022-08-10T06:26:24.069Z,95859.22
2022-08-10T06:29:14.988Z,95856.13
2022-08-10T06:32:01.949Z,95845.91
2022-08-10T06:34:53.051Z,95843.63
2022-08-10T06:37:40.250Z,95850.00
2022-08-10T06:40:28.456Z,95841.34
2022-08-10T06:43:17.856Z,95842.16
2022-08-10T06:46:10.039Z,95839.00
2022-08-10T06:49:03.548Z,95829.94
2022-08-10T06:51:57.213Z,95840.66
2022-08-10T06:54:52.179Z,95835.97
2022-08-10T06:57:39.319Z,95840.72
2022-08-10T07:00:32.435Z,95831.28
2022-08-10T07:03:21.638Z,95828.13
2022-08-10T07:06:08.324Z,95824.97
2022-08-10T07:08:56.165Z,95822.63
2022-08-10T07:11:44.563Z,95832.91
2022-08-10T07:14:31.477Z,95825.41
2022-08-10T07:17:21.664Z,95832.09
2022-08-10T07:20:09.513Z,95825.00
2022-08-10T07:23:26.808Z,95825.81
2022-08-10T07:26:03.908Z,95821.06
2022-08-10T07:28:51.183Z,95836.09
2022-08-10T07:31:57.136Z,95836.09
2022-08-10T07:34:45.386Z,95838.50
2022-08-10T07:37:36.060Z,95840.09
2022-08-10T07:40:22.689Z,95833.78
2022-08-10T07:43:09.371Z,95838.13
2022-08-10T07:45:57.053Z,95828.25
2022-08-10T07:48:49.158Z,95830.66
2022-08-10T07:51:36.593Z,95824.72
2022-08-10T07:54:24.308Z,95833.06
2022-08-10T07:57:31.874Z,95824.38
2022-08-10T08:00:20.075Z,95829.91
2022-08-10T08:03:07.632Z,95824.38
2022-08-10T08:05:58.463Z,95820.47
2022-08-10T08:08:49.818Z,95819.66
2022-08-10T08:11:37.397Z,95807.81
2022-08-10T08:14:24.069Z,95815.72
2022-08-10T08:17:10.514Z,95818.91
2022-08-10T08:19:57.875Z,95818.09
2022-08-10T08:24:30.563Z,95809.41
2022-08-10T08:25:56.418Z,95804.66
2022-08-10T08:28:42.580Z,95801.13
2022-08-10T08:31:28.554Z,95803.13
2022-08-10T08:34:16.365Z,95793.63
2022-08-10T08:37:03.288Z,95794.03
2022-08-10T08:39:49.462Z,95796.06
2022-08-10T08:43:24.733Z,95790.88
2022-08-10T08:46:43.406Z,95788.94
2022-08-10T08:50:08.177Z,95788.91
2022-08-10T08:53:23.078Z,95789.31
2022-08-10T08:56:50.468Z,95781.81
2022-08-10T09:00:01.921Z,95787.34
2022-08-10T09:02:55.650Z,95782.59
2022-08-10T09:06:00.844Z,95784.59
2022-08-10T09:09:12.514Z,95771.53
2022-08-10T09:12:04.246Z,95780.63
2022-08-10T09:15:05.566Z,95777.84
2022-08-10T09:18:08.197Z,95781.78
2022-08-10T09:21:31.600Z,95776.25
2022-08-10T09:24:45.779Z,95770.72
2022-08-10T09:27:44.107Z,95775.47
2022-08-10T09:31:18.836Z,95772.66
2022-08-10T09:36:24.061Z,95772.28
2022-08-10T09:37:20.995Z,95769.06
2022-08-10T09:41:00.191Z,95754.81
2022-08-10T09:48:00.751Z,95749.25
2022-08-10T09:54:54.773Z,95744.44
2022-08-10T09:58:19.061Z,95748.00
2022-08-10T10:01:56.399Z,95742.03
2022-08-10T10:04:48.630Z,95747.91
2022-08-10T10:07:38.906Z,95739.63
2022-08-10T10:10:53.239Z,95730.91
2022-08-10T10:14:02.385Z,95726.09
2022-08-10T10:17:04.396Z,95718.56
2022-08-10T10:20:31.456Z,95717.34
2022-08-10T10:23:23.720Z,95715.28
2022-08-10T10:26:22.017Z,95710.91
2022-08-10T10:29:56.546Z,95705.34
2022-08-10T10:33:17.029Z,95716.38
2022-08-10T10:36:05.207Z,95706.84
2022-08-10T10:38:52.256Z,95704.41
2022-08-10T10:42:04.657Z,95702.78
2022-08-10T10:45:27.355Z,95687.69
2022-08-10T10:48:28.916Z,95682.91
2022-08-10T10:51:32.825Z,95685.25
2022-08-10T10:54:57.295Z,95685.28
2022-08-10T11:02:48.693Z,95669.47
2022-08-10T11:05:50.448Z,95662.31
2022-08-10T11:08:40.158Z,95669.50
2022-08-10T11:12:00.398Z,95648.19
2022-08-10T11:14:55.258Z,95662.00
2022-08-10T11:17:51.070Z,95668.34
2022-08-10T11:20:57.453Z,95661.63
2022-08-10T11:24:42.900Z,95675.94
2022-08-10T11:27:33.197Z,95673.50
2022-08-10T11:30:24.356Z,95669.53
2022-08-10T11:33:32.507Z,95685.00
2022-08-10T11:36:45.692Z,95692.13
2022-08-10T11:39:48.544Z,95701.63
2022-08-10T11:42:47.867Z,95696.47
2022-08-10T11:45:51.524Z,95702.03
2022-08-10T11:48:53.886Z,95713.56
2022-08-10T11:51:47.956Z,95707.25
2022-08-10T11:54:51.889Z,95696.56
2022-08-10T11:57:53.897Z,95691.09
2022-08-10T12:00:41.601Z,95680.78
2022-08-10T12:03:31.349Z,95665.75
2022-08-10T12:06:33.998Z,95667.31
2022-08-10T12:10:10.715Z,95655.44
2022-08-10T12:12:39.419Z,95657.84
2022-08-10T12:15:35.684Z,95642.06
2022-08-10T12:18:27.493Z,95647.59
2022-08-10T12:21:21.933Z,95638.84
2022-08-10T12:24:26.276Z,95635.56
2022-08-10T12:27:20.520Z,95615.22
2022-08-10T12:30:08.940Z,95620.13
2022-08-10T12:33:05.188Z,95617.97
2022-08-10T12:36:17.335Z,95613.38
2022-08-10T12:39:22.568Z,95617.91
2022-08-10T12:42:36.943Z,95612.84
2022-08-10T12:45:34.219Z,95611.03
2022-08-10T12:48:44.594Z,95612.59
2022-08-10T12:51:31.612Z,95613.78
2022-08-10T12:54:31.435Z,95617.38
2022-08-10T12:57:22.508Z,95606.91
2022-08-10T13:00:17.081Z,95603.09
2022-08-10T13:03:06.512Z,95615.97
2022-08-10T13:06:00.221Z,95608.13
2022-08-10T13:09:08.362Z,95605.69
2022-08-10T13:12:36.530Z,95589.59
2022-08-10T13:15:45.993Z,95583.44
2022-08-10T13:18:38.115Z,95578.78
2022-08-10T13:21:30.244Z,95582.22
2022-08-10T13:24:32.247Z,95570.69
2022-08-10T13:27:25.752Z,95572.59
2022-08-10T13:30:13.995Z,95571.13
2022-08-10T13:33:01.519Z,95569.78
2022-08-10T13:35:47.701Z,95567.78
2022-08-10T13:38:44.040Z,95558.91
2022-08-10T13:41:39.301Z,95567.94
2022-08-10T13:44:44.809Z,95566.06
2022-08-10T13:47:48.118Z,95562.53
2022-08-10T13:50:37.623Z,95574.09
2022-08-10T13:53:30.410Z,95577.72
2022-08-10T13:56:16.952Z,95579.88
2022-08-10T13:59:06.731Z,95576.84
2022-08-10T14:01:56.781Z,95573.81
2022-08-10T14:04:47.958Z,95569.75
2022-08-10T14:07:34.956Z,95563.13
2022-08-10T14:11:08.379Z,95569.25
2022-08-10T14:13:28.753Z,95579.13
2022-08-10T14:16:15.715Z,95578.44
2022-08-10T14:19:16.602Z,95579.91
2022-08-10T14:22:02.583Z,95574.09
2022-08-10T14:24:49.045Z,95594.03
2022-08-10T14:28:01.954Z,95589.41
2022-08-10T14:30:44.159Z,95590.59
2022-08-10T14:33:32.266Z,95589.84
2022-08-10T14:36:43.070Z,95597.72
2022-08-10T14:39:56.602Z,95583.78
2022-08-10T14:42:49.669Z,95579.22
2022-08-10T14:45:38.405Z,95585.25
2022-08-10T14:48:33.043Z,95592.69
2022-08-10T14:51:26.648Z,95603.44
2022-08-10T14:54:15.920Z,95602.31
2022-08-10T14:57:11.413Z,95608.34
2022-08-10T15:00:24.766Z,95616.13
2022-08-10T15:03:49.398Z,95598.16
2022-08-10T15:06:17.091Z,95602.53
2022-08-10T15:09:19.495Z,95603.94
2022-08-10T15:12:13.355Z,95602.41
2022-08-10T15:15:07.783Z,95605.31
2022-08-10T15:17:57.520Z,95605.38
2022-08-10T15:20:44.322Z,95611.91
2022-08-10T15:24:05.248Z,95613.81
2022-08-10T15:26:57.462Z,95619.38
2022-08-10T15:29:57.136Z,95613.66
2022-08-10T15:33:10.326Z,95619.41
2022-08-10T15:36:17.101Z,95624.53
2022-08-10T15:40:20.697Z,95636.31
2022-08-10T15:42:16.560Z,95634.59
2022-08-10T15:45:03.481Z,95632.00
2022-08-10T15:48:03.172Z,95647.03
2022-08-10T15:50:50.895Z,95640.44
2022-08-10T15:53:49.857Z,95649.47
2022-08-10T15:56:46.208Z,95650.53
2022-08-10T15:59:34.659Z,95655.63
2022-08-10T16:02:25.026Z,95657.66
2022-08-10T16:05:16.232Z,95663.47
2022-08-10T16:08:07.845Z,95657.72
2022-08-10T16:11:08.840Z,95659.72
2022-08-10T16:14:00.660Z,95664.13
2022-08-10T16:16:56.065Z,95656.56
2022-08-10T16:19:48.700Z,95668.69
2022-08-10T16:22:37.633Z,95662.19
2022-08-10T16:25:24.546Z,95650.09
2022-08-10T16:28:40.105Z,95656.66
2022-08-10T16:31:27.367Z,95657.66
2022-08-10T16:34:16.063Z,95657.75
2022-08-10T16:37:08.169Z,95661.03
2022-08-10T16:40:01.021Z,95668.31
2022-08-10T16:42:49.401Z,95655.69
2022-08-10T16:45:38.921Z,95659.34
2022-08-10T16:48:49.000Z,95647.97
2022-08-10T16:51:32.174Z,95661.53
2022-08-10T16:54:27.048Z,95664.78
2022-08-10T16:57:14.329Z,95665.63
2022-08-10T17:00:00.230Z,95666.53
2022-08-10T17:02:52.897Z,95677.75
2022-08-10T17:06:03.420Z,95677.00
2022-08-10T17:08:49.122Z,95681.50
2022-08-10T17:11:36.588Z,95688.28
2022-08-10T17:14:24.800Z,95688.41
2022-08-10T17:17:26.362Z,95690.06
2022-08-10T17:20:30.395Z,95678.28
2022-08-10T17:23:19.350Z,95683.88
2022-08-10T17:26:11.255Z,95682.41
2022-08-10T17:29:06.720Z,95677.31
2022-08-10T17:31:55.669Z,95680.53
2022-08-10T17:34:46.228Z,95680.19
2022-08-10T17:37:37.488Z,95681.47
2022-08-10T17:40:26.040Z,95688.66
2022-08-10T17:43:12.649Z,95676.50
2022-08-10T17:46:18.986Z,95682.94
2022-08-10T17:49:09.574Z,95693.28
2022-08-10T17:51:56.818Z,95694.16
2022-08-10T17:54:44.520Z,95690.22
2022-08-10T17:57:35.660Z,95693.09
2022-08-10T18:00:22.365Z,95702.25
2022-08-10T18:03:25.479Z,95700.66
2022-08-10T18:06:16.036Z,95705.47
2022-08-10T18:09:04.453Z,95711.88
2022-08-10T18:11:50.892Z,95715.84
2022-08-10T18:14:37.105Z,95721.84
2022-08-10T18:17:33.740Z,95722.28
2022-08-10T18:20:27.819Z,95721.16
2022-08-10T18:23:14.617Z,95718.41
2022-08-10T18:26:05.348Z,95718.41
2022-08-10T18:28:53.109Z,95716.50
2022-08-10T18:31:41.962Z,95722.88
2022-08-10T18:34:30.406Z,95728.03
2022-08-10T18:37:20.427Z,95728.09
2022-08-10T18:40:09.508Z,95739.22
2022-08-10T18:42:56.984Z,95742.06
2022-08-10T18:45:44.832Z,95733.78
2022-08-10T18:48:39.020Z,95745.28
2022-08-10T18:51:27.941Z,95747.69
2022-08-10T18:54:39.384Z,95754.47
2022-08-10T18:58:02.727Z,95753.69
2022-08-10T19:01:13.462Z,95756.06
2022-08-10T19:04:14.851Z,95755.28
2022-08-10T19:07:24.993Z,95762.47
2022-08-10T19:10:34.646Z,95758.56
2022-08-10T19:13:34.597Z,95756.97
2022-08-10T19:16:48.888Z,95766.09
2022-08-10T19:19:42.459Z,95764.13
2022-08-10T19:22:37.502Z,95767.69
2022-08-10T19:26:38.096Z,95762.56
2022-08-10T19:29:13.990Z,95759.03
2022-08-10T19:32:38.701Z,95763.41
2022-08-10T19:36:04.019Z,95755.50
2022-08-10T19:39:15.689Z,95757.06
2022-08-10T19:42:14.989Z,95765.38
2022-08-10T19:45:55.373Z,95760.25
2022-08-10T19:48:40.477Z,95768.16
2022-08-10T19:51:30.416Z,95761.81
2022-08-10T19:54:26.430Z,95748.81
2022-08-10T19:57:34.695Z,95768.16
2022-08-10T20:00:26.992Z,95765.00
2022-08-10T20:03:17.343Z,95768.97
2022-08-10T20:06:19.297Z,95769.38
2022-08-10T20:09:06.827Z,95775.31
2022-08-10T20:12:08.714Z,95767.03
2022-08-10T20:15:04.632Z,95766.66
2022-08-10T20:18:27.387Z,95781.31
2022-08-10T20:21:29.375Z,95776.16
2022-08-10T20:24:59.377Z,95777.78
2022-08-10T20:28:01.976Z,95767.50
2022-08-10T20:30:53.519Z,95772.28
2022-08-10T20:34:01.630Z,95774.25
2022-08-10T20:37:05.325Z,95773.84
2022-08-10T20:40:12.615Z,95773.84
2022-08-10T20:43:24.758Z,95781.00
2022-08-10T20:46:27.642Z,95773.06
2022-08-10T20:49:31.883Z,95779.00
2022-08-10T20:52:18.528Z,95772.28
2022-08-10T20:55:09.029Z,95774.66
2022-08-10T20:58:14.724Z,95781.78
2022-08-10T21:02:07.199Z,95783.78
2022-08-10T21:04:44.036Z,95776.25
2022-08-10T21:08:00.550Z,95775.47
2022-08-10T21:10:58.960Z,95773.91
2022-08-10T21:13:58.355Z,95778.66
2022-08-10T21:16:47.787Z,95778.63
2022-08-10T21:19:36.915Z,95773.13
2022-08-10T21:22:29.418Z,95771.94
2022-08-10T21:25:30.145Z,95774.69
2022-08-10T21:28:28.962Z,95775.88
2022-08-10T21:31:33.892Z,95781.81
2022-08-10T21:34:37.966Z,95775.09
2022-08-10T21:37:56.769Z,95770.69
2022-08-10T21:41:18.403Z,95781.75
2022-08-10T21:45:08.184Z,95774.66
2022-08-10T21:52:25.395Z,95774.66
2022-08-10T21:55:55.977Z,95765.16
2022-08-10T21:59:22.997Z,95762.38
2022-08-10T22:02:31.902Z,95751.34
2022-08-10T22:05:49.584Z,95762.00
2022-08-10T22:09:01.484Z,95756.84
2022-08-10T22:12:31.399Z,95758.81
2022-08-10T22:16:09.699Z,95761.97
2022-08-10T22:19:14.760Z,95756.41
2022-08-10T22:22:27.815Z,95757.19
2022-08-10T22:25:53.329Z,95756.03
2022-08-10T22:29:06.572Z,95758.34
2022-08-10T22:31:25.375Z,95768.72
2022-08-10T22:32:37.926Z,95755.94
2022-08-10T22:36:08.819Z,95753.16
2022-08-10T22:40:10.187Z,95753.19
2022-08-10T22:42:59.572Z,95755.53
2022-08-10T22:46:19.960Z,95762.63
2022-08-10T22:49:06.386Z,95754.69
2022-08-10T22:52:01.946Z,95753.09
2022-08-10T22:55:20.792Z,95742.03
2022-08-10T22:58:25.220Z,95733.75
2022-08-10T23:01:36.110Z,95743.63
2022-08-10T23:04:27.445Z,95729.34
2022-08-10T23:07:25.027Z,95736.47
2022-08-10T23:10:12.877Z,95734.09
2022-08-10T23:13:35.578Z,95739.97
2022-08-10T23:16:46.993Z,95735.56
2022-08-10T23:19:47.736Z,95735.56
2022-08-10T23:22:36.471Z,95730.00
2022-08-10T23:25:27.169Z,95729.22
2022-08-10T23:28:17.392Z,95735.53
2022-08-10T23:31:59.195Z,95733.53
2022-08-10T23:34:33.341Z,95740.22
2022-08-10T23:37:19.657Z,95737.06
2022-08-10T23:40:13.708Z,95743.34
2022-08-10T23:42:59.817Z,95732.31
2022-08-10T23:45:53.012Z,95736.25
2022-08-10T23:48:40.832Z,95742.56
2022-08-10T23:51:54.438Z,95733.44
2022-08-10T23:54:54.622Z,95733.03
2022-08-10T23:57:42.559Z,95732.66
